createdAt,value
2019-06-26T00:02:14.417Z,67.70
2019-06-26T00:04:43.261Z,72.50
2019-06-26T00:07:12.118Z,72.72
2019-06-26T00:09:40.946Z,66.80
2019-06-26T00:12:09.731Z,65.87
2019-06-26T00:14:39.105Z,61.45
2019-06-26T00:17:08.063Z,64.07
2019-06-26T00:19:36.941Z,59.65
2019-06-26T00:22:05.807Z,61.60
2019-06-26T00:24:34.691Z,67.10
2019-06-26T00:27:03.483Z,67.15
2019-06-26T00:29:32.354Z,73.45
2019-06-26T00:32:01.198Z,70.60
2019-06-26T00:34:29.981Z,69.65
2019-06-26T00:36:58.801Z,72.22
2019-06-26T00:39:27.661Z,73.15
2019-06-26T00:41:56.451Z,75.35
2019-06-26T00:44:25.269Z,74.20
2019-06-26T00:46:54.102Z,75.42
2019-06-26T00:49:22.951Z,79.22
2019-06-26T00:51:51.790Z,87.40
2019-06-26T00:54:20.565Z,68.60
2019-06-26T00:56:49.405Z,74.12
2019-06-26T00:59:18.235Z,65.92
2019-06-26T01:01:47.112Z,65.05
2019-06-26T01:04:17.540Z,71.25
2019-06-26T01:06:46.448Z,71.92
2019-06-26T01:09:15.826Z,70.67
2019-06-26T01:11:44.718Z,78.35
2019-06-26T01:14:13.644Z,75.25
2019-06-26T01:16:42.448Z,80.25
2019-06-26T01:19:11.329Z,79.80
2019-06-26T01:21:40.127Z,78.22
2019-06-26T01:24:09.018Z,73.92
2019-06-26T01:26:37.874Z,78.72
2019-06-26T01:29:06.732Z,77.72
2019-06-26T01:31:35.670Z,78.00
2019-06-26T01:34:04.605Z,77.75
2019-06-26T01:36:34.492Z,73.62
2019-06-26T01:39:04.729Z,75.17
2019-06-26T01:41:33.572Z,71.40
2019-06-26T01:44:14.135Z,74.62
2019-06-26T01:46:33.251Z,73.33
2019-06-26T01:49:02.215Z,77.15
2019-06-26T01:51:31.001Z,76.12
2019-06-26T01:53:59.809Z,80.72
2019-06-26T01:56:28.688Z,76.42
2019-06-26T01:58:58.628Z,71.55
2019-06-26T02:01:27.404Z,74.17
2019-06-26T02:03:56.212Z,80.15
2019-06-26T02:06:25.010Z,79.82
2019-06-26T02:08:53.907Z,84.17
2019-06-26T02:11:22.678Z,77.05
2019-06-26T02:13:51.496Z,74.32
2019-06-26T02:16:20.340Z,75.50
2019-06-26T02:18:50.808Z,73.57
2019-06-26T02:21:19.674Z,88.52
2019-06-26T02:23:50.138Z,86.60
2019-06-26T02:26:18.975Z,84.03
2019-06-26T02:28:47.812Z,89.87
2019-06-26T02:31:16.593Z,87.57
2019-06-26T02:33:45.513Z,93.58
2019-06-26T02:36:14.278Z,96.15
2019-06-26T02:38:43.095Z,95.95
2019-06-26T02:41:11.940Z,86.12
2019-06-26T02:43:40.775Z,104.70
2019-06-26T02:46:09.627Z,99.83
2019-06-26T02:48:38.425Z,99.30
2019-06-26T02:51:07.328Z,93.42
2019-06-26T02:53:36.107Z,100.42
2019-06-26T02:56:05.054Z,86.60
2019-06-26T02:58:33.828Z,94.03
2019-06-26T03:01:02.685Z,92.17
2019-06-26T03:03:31.460Z,89.47
2019-06-26T03:06:00.278Z,97.70
2019-06-26T03:08:29.095Z,97.97
2019-06-26T03:10:57.879Z,95.20
2019-06-26T03:13:28.810Z,95.72
2019-06-26T03:15:57.582Z,97.47
2019-06-26T03:18:26.505Z,85.30
2019-06-26T03:20:58.573Z,83.90
2019-06-26T03:23:27.415Z,76.12
2019-06-26T03:25:56.254Z,81.50
2019-06-26T03:28:25.109Z,83.37
2019-06-26T03:30:53.954Z,82.42
2019-06-26T03:33:22.775Z,88.00
2019-06-26T03:35:52.634Z,90.55
2019-06-26T03:38:21.489Z,88.33
2019-06-26T03:40:50.324Z,83.97
2019-06-26T03:43:19.227Z,91.10
2019-06-26T03:45:48.054Z,102.40
2019-06-26T03:48:16.908Z,89.52
2019-06-26T03:50:45.757Z,89.60
2019-06-26T03:53:14.641Z,83.12
2019-06-26T03:55:43.472Z,84.50
2019-06-26T03:58:12.257Z,90.67
2019-06-26T04:00:44.281Z,79.77
2019-06-26T04:03:13.138Z,87.35
2019-06-26T04:05:41.947Z,80.50
2019-06-26T04:08:10.799Z,90.28
2019-06-26T04:10:43.058Z,88.15
2019-06-26T04:13:10.108Z,89.62
2019-06-26T04:15:42.585Z,93.00
2019-06-26T04:18:09.976Z,83.78
2019-06-26T04:20:38.757Z,85.50
2019-06-26T04:23:07.634Z,83.78
2019-06-26T04:25:38.306Z,80.75
2019-06-26T04:28:06.971Z,82.75
2019-06-26T04:30:35.808Z,92.70
2019-06-26T04:33:05.798Z,93.70
2019-06-26T04:35:34.660Z,86.75
2019-06-26T04:38:40.665Z,96.75
2019-06-26T04:41:09.423Z,93.25
2019-06-26T04:43:38.265Z,88.42
2019-06-26T04:46:07.167Z,92.02
2019-06-26T04:48:36.005Z,87.55
2019-06-26T04:51:05.238Z,95.15
2019-06-26T04:53:34.085Z,87.37
2019-06-26T04:56:04.077Z,91.80
2019-06-26T04:58:32.856Z,81.35
2019-06-26T05:01:01.758Z,96.30
2019-06-26T05:03:30.543Z,84.40
2019-06-26T05:05:59.391Z,83.10
2019-06-26T05:08:28.191Z,82.37
2019-06-26T05:10:57.030Z,81.57
2019-06-26T05:13:25.871Z,80.75
2019-06-26T05:15:54.756Z,77.42
2019-06-26T05:18:23.633Z,74.22
2019-06-26T05:20:52.485Z,69.80
2019-06-26T05:23:21.383Z,72.85
2019-06-26T05:25:50.231Z,74.67
2019-06-26T05:28:19.042Z,67.78
2019-06-26T05:30:49.128Z,75.25
2019-06-26T05:33:18.010Z,65.87
2019-06-26T05:35:46.894Z,59.70
2019-06-26T05:38:15.745Z,65.67
2019-06-26T05:40:44.640Z,56.35
2019-06-26T05:43:13.476Z,49.73
2019-06-26T05:45:43.842Z,67.60
2019-06-26T05:48:12.710Z,61.98
2019-06-26T05:50:41.553Z,57.90
2019-06-26T05:53:10.458Z,63.10
2019-06-26T05:55:39.255Z,61.83
2019-06-26T05:58:08.130Z,63.58
2019-06-26T06:00:36.986Z,66.17
2019-06-26T06:03:06.016Z,67.25
2019-06-26T06:05:36.418Z,62.78
2019-06-26T06:08:05.263Z,65.05
2019-06-26T06:10:36.030Z,66.47
2019-06-26T06:13:04.893Z,67.40
2019-06-26T06:15:35.166Z,69.90
2019-06-26T06:18:04.016Z,68.35
2019-06-26T06:20:39.887Z,71.42
2019-06-26T06:23:08.728Z,64.25
2019-06-26T06:25:38.922Z,67.10
2019-06-26T06:28:09.072Z,71.12
2019-06-26T06:30:37.974Z,75.65
2019-06-26T06:33:08.236Z,72.00
2019-06-26T06:35:38.561Z,75.12
2019-06-26T06:38:08.458Z,70.92
2019-06-26T06:40:37.294Z,82.20
2019-06-26T06:43:08.102Z,100.90
2019-06-26T06:45:37.040Z,76.85
2019-06-26T06:48:07.238Z,79.92
2019-06-26T06:50:37.549Z,78.80
2019-06-26T06:53:06.474Z,85.10
2019-06-26T06:55:36.023Z,77.75
2019-06-26T06:58:04.911Z,75.25
2019-06-26T07:00:33.791Z,75.08
2019-06-26T07:03:02.617Z,72.78
2019-06-26T07:05:31.519Z,65.90
2019-06-26T07:08:00.326Z,69.05
2019-06-26T07:10:29.227Z,69.22
2019-06-26T07:12:58.068Z,69.67
2019-06-26T07:15:26.979Z,77.00
2019-06-26T07:17:55.748Z,70.42
2019-06-26T07:20:24.681Z,72.80
2019-06-26T07:22:53.512Z,74.97
2019-06-26T07:25:22.425Z,68.00
2019-06-26T07:27:51.273Z,83.70
2019-06-26T07:30:20.322Z,83.10
2019-06-26T07:32:50.777Z,80.07
2019-06-26T07:35:19.729Z,76.17
2019-06-26T07:37:49.932Z,68.50
2019-06-26T07:40:18.987Z,68.65
2019-06-26T07:42:47.879Z,65.87
2019-06-26T07:45:16.826Z,60.78
2019-06-26T07:47:46.971Z,65.85
2019-06-26T07:50:15.958Z,57.10
2019-06-26T07:52:44.916Z,54.40
2019-06-26T07:55:13.905Z,57.93
2019-06-26T07:57:42.740Z,69.55
2019-06-26T08:00:12.023Z,62.48
2019-06-26T08:02:42.021Z,66.70
2019-06-26T08:05:11.512Z,61.23
2019-06-26T08:07:40.298Z,72.12
2019-06-26T08:10:09.295Z,53.15
2019-06-26T08:12:38.152Z,55.60
2019-06-26T08:15:07.596Z,55.80
2019-06-26T08:17:36.482Z,47.38
2019-06-26T08:20:06.619Z,52.83
2019-06-26T08:22:35.442Z,57.00
2019-06-26T08:25:06.685Z,52.75
2019-06-26T08:27:36.702Z,58.28
2019-06-26T08:30:10.921Z,59.70
2019-06-26T08:32:39.730Z,55.95
2019-06-26T08:35:08.684Z,50.85
2019-06-26T08:37:37.559Z,87.37
2019-06-26T08:40:07.301Z,121.30
2019-06-26T08:42:36.192Z,54.48
2019-06-26T08:45:07.496Z,48.05
2019-06-26T08:47:36.299Z,48.25
2019-06-26T08:50:09.462Z,51.13
2019-06-26T08:52:38.346Z,45.90
2019-06-26T08:55:11.167Z,51.50
2019-06-26T08:57:41.099Z,47.70
2019-06-26T09:00:11.456Z,47.67
2019-06-26T09:02:40.359Z,44.05
2019-06-26T09:05:09.932Z,45.78
2019-06-26T09:07:38.837Z,41.45
2019-06-26T09:10:08.213Z,46.15
2019-06-26T09:12:37.075Z,43.10
2019-06-26T09:15:09.390Z,42.08
2019-06-26T09:17:38.230Z,46.37
2019-06-26T09:20:09.092Z,42.85
2019-06-26T09:22:37.940Z,39.30
2019-06-26T09:25:21.410Z,39.75
2019-06-26T09:27:40.924Z,39.40
2019-06-26T09:30:10.316Z,36.85
2019-06-26T09:32:39.101Z,38.25
2019-06-26T09:35:08.309Z,36.13
2019-06-26T09:37:37.249Z,37.50
2019-06-26T09:40:06.768Z,36.93
2019-06-26T09:42:35.539Z,47.17
2019-06-26T09:45:08.659Z,37.78
2019-06-26T09:47:37.442Z,39.25
2019-06-26T09:50:07.758Z,38.40
2019-06-26T09:52:36.748Z,41.73
2019-06-26T09:55:06.898Z,34.03
2019-06-26T09:57:35.782Z,34.35
2019-06-26T10:00:16.759Z,28.15
2019-06-26T10:02:45.639Z,30.17
2019-06-26T10:05:14.621Z,31.40
2019-06-26T10:07:43.539Z,25.68
2019-06-26T10:10:14.595Z,23.62
2019-06-26T10:12:43.631Z,32.10
2019-06-26T10:15:13.648Z,29.65
2019-06-26T10:17:42.534Z,28.00
2019-06-26T10:20:11.912Z,28.12
2019-06-26T10:22:40.754Z,25.72
2019-06-26T10:25:11.399Z,29.27
2019-06-26T10:27:42.525Z,25.95
2019-06-26T10:30:14.397Z,24.52
2019-06-26T10:32:43.268Z,27.48
2019-06-26T10:35:13.809Z,26.77
2019-06-26T10:37:42.722Z,26.85
2019-06-26T10:40:16.185Z,23.85
2019-06-26T10:42:44.227Z,26.87
2019-06-26T10:45:13.113Z,24.60
2019-06-26T10:47:42.559Z,26.20
2019-06-26T10:50:11.948Z,26.57
2019-06-26T10:52:40.782Z,27.25
2019-06-26T10:55:10.075Z,25.50
2019-06-26T10:57:40.699Z,32.48
2019-06-26T11:00:12.466Z,25.45
2019-06-26T11:02:45.546Z,26.80
2019-06-26T11:05:14.473Z,28.95
2019-06-26T11:07:43.402Z,31.52
2019-06-26T11:10:12.855Z,30.72
2019-06-26T11:12:41.748Z,26.12
2019-06-26T11:15:12.065Z,28.02
2019-06-26T11:17:40.980Z,32.88
2019-06-26T11:20:10.749Z,31.37
2019-06-26T11:22:39.597Z,30.20
2019-06-26T11:25:08.976Z,29.20
2019-06-26T11:27:37.829Z,23.18
2019-06-26T11:30:12.196Z,30.25
2019-06-26T11:32:41.022Z,42.10
2019-06-26T11:35:10.063Z,29.60
2019-06-26T11:37:38.923Z,27.95
2019-06-26T11:40:08.847Z,74.90
2019-06-26T11:42:37.610Z,32.35
2019-06-26T11:45:07.631Z,32.33
2019-06-26T11:47:36.588Z,34.33
2019-06-26T11:50:07.746Z,28.65
2019-06-26T11:52:36.586Z,23.03
2019-06-26T11:55:08.170Z,32.55
2019-06-26T11:57:37.013Z,32.17
2019-06-26T12:00:11.748Z,27.48
2019-06-26T12:02:40.718Z,28.38
2019-06-26T12:05:10.508Z,22.95
2019-06-26T12:07:39.346Z,24.85
2019-06-26T12:10:09.403Z,24.25
2019-06-26T12:12:38.308Z,33.08
2019-06-26T12:15:07.713Z,27.30
2019-06-26T12:17:38.134Z,28.27
2019-06-26T12:20:18.025Z,31.85
2019-06-26T12:22:38.039Z,36.00
2019-06-26T12:25:09.010Z,25.80
2019-06-26T12:27:37.889Z,30.10
2019-06-26T12:30:07.750Z,29.77
2019-06-26T12:32:42.384Z,32.30
2019-06-26T12:35:07.491Z,34.67
2019-06-26T12:37:38.008Z,32.63
2019-06-26T12:40:08.830Z,31.33
2019-06-26T12:42:37.652Z,31.05
2019-06-26T12:45:10.942Z,37.73
2019-06-26T12:47:39.814Z,36.53
2019-06-26T12:50:09.750Z,37.30
2019-06-26T12:52:38.646Z,34.10
2019-06-26T12:55:07.631Z,32.58
2019-06-26T12:57:36.451Z,33.50
2019-06-26T13:00:10.396Z,34.03
2019-06-26T13:02:40.858Z,31.33
2019-06-26T13:05:10.143Z,31.33
2019-06-26T13:07:39.012Z,37.48
2019-06-26T13:10:09.582Z,30.92
2019-06-26T13:12:38.430Z,36.68
2019-06-26T13:15:08.722Z,39.40
2019-06-26T13:17:37.580Z,35.35
2019-06-26T13:20:10.521Z,33.33
2019-06-26T13:22:40.990Z,35.75
2019-06-26T13:25:10.443Z,33.58
2019-06-26T13:27:39.262Z,32.20
2019-06-26T13:30:09.109Z,39.60
2019-06-26T13:32:38.004Z,38.78
2019-06-26T13:35:07.150Z,39.05
2019-06-26T13:37:36.063Z,43.75
2019-06-26T13:40:06.396Z,38.28
2019-06-26T13:42:35.209Z,31.70
2019-06-26T13:45:06.518Z,35.65
2019-06-26T13:47:35.411Z,39.80
2019-06-26T13:50:08.844Z,39.05
2019-06-26T13:52:37.677Z,32.93
2019-06-26T13:55:07.774Z,33.02
2019-06-26T13:57:36.697Z,35.20
2019-06-26T14:00:08.904Z,41.98
2019-06-26T14:02:37.784Z,27.30
2019-06-26T14:05:08.829Z,39.78
2019-06-26T14:07:37.646Z,36.48
2019-06-26T14:10:07.595Z,34.35
2019-06-26T14:12:36.481Z,30.15
2019-06-26T14:15:06.974Z,31.73
2019-06-26T14:17:35.860Z,35.35
2019-06-26T14:20:06.421Z,39.55
2019-06-26T14:22:35.322Z,34.15
2019-06-26T14:25:05.888Z,36.80
2019-06-26T14:27:34.703Z,31.93
2019-06-26T14:30:04.939Z,41.08
2019-06-26T14:32:33.842Z,36.05
2019-06-26T14:35:03.046Z,35.90
2019-06-26T14:37:31.958Z,38.40
2019-06-26T14:40:00.739Z,33.53
2019-06-26T14:42:29.639Z,34.40
2019-06-26T14:44:59.549Z,37.65
2019-06-26T14:47:29.750Z,37.40
2019-06-26T14:50:00.254Z,38.08
2019-06-26T14:52:29.131Z,35.68
2019-06-26T14:54:58.010Z,39.48
2019-06-26T14:57:28.479Z,34.30
2019-06-26T14:59:58.818Z,33.78
2019-06-26T15:02:27.697Z,30.10
2019-06-26T15:04:56.537Z,37.80
2019-06-26T15:07:25.432Z,33.18
2019-06-26T15:09:55.549Z,29.60
2019-06-26T15:12:24.445Z,25.02
2019-06-26T15:14:54.765Z,31.50
2019-06-26T15:17:23.606Z,28.57
2019-06-26T15:19:53.963Z,25.70
2019-06-26T15:22:22.741Z,23.55
2019-06-26T15:24:51.660Z,24.10
2019-06-26T15:27:20.510Z,28.45
2019-06-26T15:29:49.411Z,26.07
2019-06-26T15:32:19.838Z,21.65
2019-06-26T15:34:48.609Z,26.85
2019-06-26T15:37:17.501Z,24.60
2019-06-26T15:39:47.578Z,23.22
2019-06-26T15:42:16.488Z,21.80
2019-06-26T15:44:45.363Z,26.27
2019-06-26T15:47:14.237Z,20.15
2019-06-26T15:49:43.135Z,21.42
2019-06-26T15:52:15.274Z,24.27
2019-06-26T15:54:42.455Z,24.07
2019-06-26T15:57:12.786Z,22.65
2019-06-26T15:59:41.631Z,22.15
2019-06-26T16:02:10.526Z,21.42
2019-06-26T16:04:39.401Z,21.68
2019-06-26T16:07:08.299Z,25.17
2019-06-26T16:09:38.622Z,20.25
2019-06-26T16:12:07.526Z,23.85
2019-06-26T16:14:36.362Z,18.42
2019-06-26T16:17:19.440Z,22.13
2019-06-26T16:22:30.916Z,19.15
2019-06-26T16:24:46.736Z,23.57
2019-06-26T16:27:15.598Z,24.85
2019-06-26T16:29:48.659Z,25.17
2019-06-26T16:32:17.658Z,23.15
2019-06-26T16:34:47.632Z,25.52
2019-06-26T16:37:16.491Z,30.48
2019-06-26T16:39:45.322Z,23.92
2019-06-26T16:42:14.815Z,28.85
2019-06-26T16:44:43.654Z,32.45
2019-06-26T16:47:13.032Z,35.88
2019-06-26T16:49:41.877Z,28.25
2019-06-26T16:52:10.783Z,28.27
2019-06-26T16:54:39.615Z,37.50
2019-06-26T16:57:08.552Z,26.77
2019-06-26T16:59:37.380Z,21.73
2019-06-26T17:02:07.730Z,30.23
2019-06-26T17:04:37.866Z,24.82
2019-06-26T17:07:06.767Z,28.38
2019-06-26T17:09:35.548Z,35.90
2019-06-26T17:12:04.616Z,31.90
2019-06-26T17:14:33.997Z,35.78
2019-06-26T17:17:04.534Z,33.15
2019-06-26T17:19:33.430Z,35.30
2019-06-26T17:22:05.924Z,35.30
2019-06-26T17:24:34.795Z,32.85
2019-06-26T17:27:08.971Z,30.68
2019-06-26T17:29:40.594Z,30.62
2019-06-26T17:32:11.030Z,30.92
2019-06-26T17:34:39.916Z,31.82
2019-06-26T17:37:11.405Z,26.48
2019-06-26T17:39:40.339Z,25.75
2019-06-26T17:42:09.187Z,26.30
2019-06-26T17:44:38.080Z,23.98
2019-06-26T17:47:08.167Z,27.65
2019-06-26T17:49:37.578Z,22.40
2019-06-26T17:52:06.427Z,21.35
2019-06-26T17:54:35.317Z,19.70
2019-06-26T17:57:04.161Z,20.25
2019-06-26T17:59:34.312Z,19.02
2019-06-26T18:02:03.169Z,17.95
2019-06-26T18:04:32.022Z,14.40
2019-06-26T18:07:02.321Z,13.68
2019-06-26T18:09:31.227Z,15.93
2019-06-26T18:12:00.178Z,20.23
2019-06-26T18:14:29.023Z,17.60
2019-06-26T18:16:57.882Z,25.80
2019-06-26T18:19:26.760Z,21.27
2019-06-26T18:21:55.605Z,18.20
2019-06-26T18:24:25.092Z,17.77
2019-06-26T18:26:55.490Z,14.85
2019-06-26T18:29:24.456Z,16.12
2019-06-26T18:31:53.340Z,12.18
2019-06-26T18:34:24.245Z,11.35
2019-06-26T18:36:54.987Z,10.28
2019-06-26T18:39:25.650Z,14.30
2019-06-26T18:41:54.517Z,11.28
2019-06-26T18:44:25.225Z,12.98
2019-06-26T18:46:54.252Z,12.90
2019-06-26T18:49:24.180Z,12.40
2019-06-26T18:51:53.006Z,10.53
2019-06-26T18:54:21.793Z,9.80
2019-06-26T18:56:50.692Z,17.02
2019-06-26T18:59:19.499Z,10.18
2019-06-26T19:01:48.310Z,9.80
2019-06-26T19:04:17.179Z,13.43
2019-06-26T19:06:45.945Z,15.13
2019-06-26T19:09:14.835Z,14.05
2019-06-26T19:11:43.602Z,13.08
2019-06-26T19:14:12.535Z,14.43
2019-06-26T19:16:42.924Z,10.55
2019-06-26T19:19:12.479Z,14.55
2019-06-26T19:21:41.387Z,14.60
2019-06-26T19:24:10.931Z,10.58
2019-06-26T19:26:41.197Z,14.58
2019-06-26T19:29:16.378Z,12.33
2019-06-26T19:31:52.586Z,13.40
2019-06-26T19:46:36.298Z,13.45
2019-06-26T19:49:05.168Z,10.43
2019-06-26T19:51:35.339Z,10.10
2019-06-26T19:54:08.639Z,13.55
2019-06-26T19:56:37.742Z,14.95
2019-06-26T19:59:06.654Z,11.03
2019-06-26T20:01:35.542Z,10.13
2019-06-26T20:04:04.404Z,11.43
2019-06-26T20:06:33.273Z,9.45
2019-06-26T20:09:02.150Z,8.73
2019-06-26T20:11:32.619Z,10.50
2019-06-26T20:14:01.485Z,8.38
2019-06-26T20:16:30.322Z,11.93
2019-06-26T20:18:59.220Z,9.30
2019-06-26T20:21:28.061Z,6.83
2019-06-26T20:23:56.983Z,8.65
2019-06-26T20:26:25.881Z,8.85
2019-06-26T20:28:54.849Z,9.55
2019-06-26T20:31:23.694Z,8.80
2019-06-26T20:33:52.550Z,10.58
2019-06-26T20:36:21.445Z,11.30
2019-06-26T20:38:51.757Z,9.68
2019-06-26T20:41:23.975Z,12.00
2019-06-26T20:43:52.764Z,10.98
2019-06-26T20:46:21.670Z,8.90
2019-06-26T20:48:50.572Z,6.95
2019-06-26T20:51:22.435Z,9.40
2019-06-26T20:53:51.250Z,7.35
2019-06-26T20:56:20.135Z,21.50
2019-06-26T20:58:49.045Z,11.20
2019-06-26T21:01:19.496Z,9.70
2019-06-26T21:03:48.332Z,8.28
2019-06-26T21:06:17.226Z,12.20
2019-06-26T21:08:46.070Z,8.33
2019-06-26T21:11:15.955Z,10.30
2019-06-26T21:13:46.142Z,8.18
2019-06-26T21:16:17.719Z,8.93
2019-06-26T21:18:47.616Z,7.08
2019-06-26T21:21:17.151Z,10.63
2019-06-26T21:23:46.039Z,10.70
2019-06-26T21:26:14.916Z,12.93
2019-06-26T21:28:43.804Z,11.83
2019-06-26T21:31:12.639Z,8.55
2019-06-26T21:33:41.554Z,17.15
2019-06-26T21:36:10.404Z,14.10
2019-06-26T21:38:39.248Z,17.82
2019-06-26T21:41:08.077Z,10.65
2019-06-26T21:43:36.926Z,11.48
2019-06-26T21:46:05.743Z,9.08
2019-06-26T21:48:34.513Z,5.85
2019-06-26T21:51:03.334Z,9.18
2019-06-26T21:53:32.107Z,9.95
2019-06-26T21:56:00.887Z,10.88
2019-06-26T21:58:29.704Z,8.73
2019-06-26T22:00:58.641Z,10.10
2019-06-26T22:03:27.753Z,11.10
2019-06-26T22:05:56.547Z,12.07
2019-06-26T22:08:25.408Z,8.43
2019-06-26T22:10:54.312Z,14.68
2019-06-26T22:13:23.079Z,7.85
2019-06-26T22:15:51.965Z,13.05
2019-06-26T22:18:20.730Z,9.48
2019-06-26T22:20:49.619Z,8.68
2019-06-26T22:23:18.399Z,9.75
2019-06-26T22:25:51.278Z,9.90
2019-06-26T22:28:17.647Z,13.68
2019-06-26T22:30:46.469Z,8.90
2019-06-26T22:33:15.319Z,14.07
2019-06-26T22:35:44.162Z,12.88
2019-06-26T22:38:13.016Z,11.57
2019-06-26T22:40:41.874Z,7.87
2019-06-26T22:43:10.681Z,8.43
2019-06-26T22:45:39.915Z,11.28
2019-06-26T22:48:08.730Z,14.00
2019-06-26T22:50:37.502Z,11.70
2019-06-26T22:53:06.394Z,10.25
2019-06-26T22:55:35.218Z,15.20
2019-06-26T22:58:04.048Z,10.98
2019-06-26T23:00:32.810Z,9.58
2019-06-26T23:03:01.610Z,11.35
2019-06-26T23:05:30.404Z,16.85
2019-06-26T23:07:59.179Z,8.70
2019-06-26T23:10:28.280Z,8.18
2019-06-26T23:12:57.058Z,9.38
2019-06-26T23:15:25.950Z,14.23
2019-06-26T23:17:55.044Z,11.85
2019-06-26T23:20:23.914Z,9.08
2019-06-26T23:22:52.697Z,12.10
2019-06-26T23:25:21.545Z,9.50
2019-06-26T23:27:50.337Z,13.68
2019-06-26T23:30:21.087Z,18.12
2019-06-26T23:32:49.858Z,14.35
2019-06-26T23:35:18.641Z,13.72
2019-06-26T23:37:47.463Z,14.13
2019-06-26T23:40:16.259Z,11.00
2019-06-26T23:42:45.070Z,11.10
2019-06-26T23:45:14.923Z,13.55
2019-06-26T23:47:43.821Z,11.08
2019-06-26T23:50:12.774Z,15.32
2019-06-26T23:52:41.538Z,16.40
2019-06-26T23:55:11.417Z,14.78
2019-06-26T23:57:57.585Z,18.85
